createdAt,value
2019-03-12T00:01:50.915Z,101118.00
2019-03-12T00:04:22.469Z,101114.00
2019-03-12T00:06:53.962Z,101106.00
2019-03-12T00:09:25.474Z,101108.00
2019-03-12T00:11:59.420Z,101121.00
2019-03-12T00:14:30.870Z,101118.00
2019-03-12T00:17:04.320Z,101112.00
2019-03-12T00:19:35.810Z,101116.00
2019-03-12T00:22:07.346Z,101123.00
2019-03-12T00:24:38.822Z,101118.00
2019-03-12T00:27:10.300Z,101123.00
2019-03-12T00:29:41.738Z,101125.00
2019-03-12T00:32:13.200Z,101128.00
2019-03-12T00:34:44.665Z,101122.00
2019-03-12T00:37:16.158Z,101120.00
2019-03-12T00:39:47.629Z,101123.00
2019-03-12T00:42:19.098Z,101120.00
2019-03-12T00:44:50.571Z,101132.00
2019-03-12T00:47:22.289Z,101135.00
2019-03-12T00:49:57.946Z,101132.00
2019-03-12T00:52:31.512Z,101140.00
2019-03-12T00:55:02.963Z,101146.00
2019-03-12T00:57:34.663Z,101147.00
2019-03-12T01:00:07.475Z,101143.00
2019-03-12T01:02:39.050Z,101140.00
2019-03-12T01:05:10.689Z,101160.00
2019-03-12T01:07:42.163Z,101137.00
2019-03-12T01:10:14.990Z,101149.00
2019-03-12T01:12:49.168Z,101153.00
2019-03-12T01:15:20.654Z,101138.00
2019-03-12T01:17:52.178Z,101141.00
2019-03-12T01:20:23.601Z,101139.00
2019-03-12T01:22:55.097Z,101133.00
2019-03-12T01:25:26.636Z,101125.00
2019-03-12T01:27:58.094Z,101129.00
2019-03-12T01:30:29.533Z,101118.00
2019-03-12T01:33:01.021Z,101120.00
2019-03-12T01:35:32.511Z,101126.00
2019-03-12T01:38:04.049Z,101125.00
2019-03-12T01:40:37.595Z,101124.00
2019-03-12T01:43:09.191Z,101121.00
2019-03-12T01:45:40.823Z,101121.00
2019-03-12T01:48:12.367Z,101124.00
2019-03-12T01:50:43.937Z,101123.00
2019-03-12T01:53:15.337Z,101136.00
2019-03-12T01:55:47.887Z,101129.00
2019-03-12T01:58:34.821Z,101134.00
2019-03-12T02:01:09.904Z,101125.00
2019-03-12T02:03:51.367Z,101130.00
2019-03-12T02:06:23.083Z,101126.00
2019-03-12T02:08:54.557Z,101124.00
2019-03-12T02:11:26.048Z,101114.00
2019-03-12T02:13:57.613Z,101118.00
2019-03-12T02:16:29.064Z,101118.00
2019-03-12T02:19:00.531Z,101114.00
2019-03-12T02:21:33.180Z,101120.00
2019-03-12T02:24:06.456Z,101107.00
2019-03-12T02:26:37.889Z,101095.00
2019-03-12T02:29:09.858Z,101099.00
2019-03-12T02:31:41.409Z,101099.00
2019-03-12T02:34:12.952Z,101094.00
2019-03-12T02:37:14.792Z,101100.00
2019-03-12T02:39:46.276Z,101099.00
2019-03-12T02:42:17.896Z,101088.00
2019-03-12T02:44:49.845Z,101085.00
2019-03-12T02:47:21.388Z,101081.00
2019-03-12T02:49:52.854Z,101078.00
2019-03-12T02:52:24.328Z,101079.00
2019-03-12T02:54:56.675Z,101076.00
2019-03-12T02:57:42.491Z,101071.00
2019-03-12T03:00:21.117Z,101060.00
2019-03-12T03:02:52.778Z,101067.00
2019-03-12T03:05:24.305Z,101073.00
2019-03-12T03:08:01.620Z,101076.00
2019-03-12T03:10:35.585Z,101075.00
2019-03-12T03:13:10.265Z,101079.00
2019-03-12T03:15:45.740Z,101081.00
2019-03-12T03:18:58.538Z,101075.00
2019-03-12T03:21:51.050Z,101082.00
2019-03-12T03:24:22.524Z,101092.00
2019-03-12T03:26:54.046Z,101099.00
2019-03-12T03:29:25.570Z,101101.00
2019-03-12T03:31:57.068Z,101091.00
2019-03-12T03:34:29.184Z,101091.00
2019-03-12T03:37:00.789Z,101085.00
2019-03-12T03:39:32.253Z,101076.00
2019-03-12T03:42:05.679Z,101071.00
2019-03-12T03:44:42.237Z,101076.00
2019-03-12T03:47:54.419Z,101072.00
2019-03-12T03:50:27.630Z,101065.00
2019-03-12T03:52:59.222Z,101054.00
2019-03-12T03:55:49.911Z,101071.00
2019-03-12T03:58:21.381Z,101064.00
2019-03-12T04:01:12.162Z,101058.00
2019-03-12T04:03:43.734Z,101057.00
2019-03-12T04:06:26.825Z,101062.00
2019-03-12T04:08:59.333Z,101062.00
2019-03-12T04:11:30.902Z,101068.00
2019-03-12T04:14:02.401Z,101065.00
2019-03-12T04:16:33.901Z,101066.00
2019-03-12T04:19:06.541Z,101056.00
2019-03-12T04:21:37.993Z,101045.00
2019-03-12T04:24:09.507Z,101051.00
2019-03-12T04:26:40.950Z,101055.00
2019-03-12T04:29:12.458Z,101053.00
2019-03-12T04:31:43.923Z,101048.00
2019-03-12T04:34:39.698Z,101049.00
2019-03-12T04:37:11.192Z,101052.00
2019-03-12T04:39:43.731Z,101050.00
2019-03-12T04:42:15.222Z,101053.00
2019-03-12T04:44:46.655Z,101043.00
2019-03-12T04:47:18.139Z,101041.00
2019-03-12T04:49:50.651Z,101040.00
2019-03-12T04:52:22.107Z,101039.00
2019-03-12T04:54:53.574Z,101047.00
2019-03-12T04:57:24.990Z,101042.00
2019-03-12T04:59:56.448Z,101031.00
2019-03-12T05:02:27.890Z,101038.00
2019-03-12T05:04:59.427Z,101025.00
2019-03-12T05:07:30.871Z,101025.00
2019-03-12T05:10:02.355Z,101015.00
2019-03-12T05:12:33.791Z,101015.00
2019-03-12T05:15:07.034Z,101003.00
2019-03-12T05:17:50.506Z,101009.00
2019-03-12T05:20:28.603Z,101012.00
2019-03-12T05:23:00.079Z,101011.00
2019-03-12T05:25:31.537Z,101011.00
2019-03-12T05:28:02.968Z,101003.00
2019-03-12T05:30:34.442Z,100997.00
2019-03-12T05:33:05.882Z,101000.00
2019-03-12T05:35:37.319Z,100998.00
2019-03-12T05:38:08.781Z,101000.00
2019-03-12T05:40:40.297Z,100986.00
2019-03-12T05:43:11.810Z,100989.00
2019-03-12T05:45:43.337Z,100998.00
2019-03-12T05:48:14.807Z,100988.00
2019-03-12T05:50:46.349Z,100996.00
2019-03-12T05:53:17.940Z,100988.00
2019-03-12T05:55:49.631Z,101000.00
2019-03-12T05:58:21.134Z,100998.00
2019-03-12T06:00:53.688Z,100989.00
2019-03-12T06:03:25.138Z,100998.00
2019-03-12T06:05:56.687Z,100985.00
2019-03-12T06:08:28.175Z,100986.00
2019-03-12T06:10:59.840Z,100988.00
2019-03-12T06:13:31.390Z,100988.00
2019-03-12T06:16:02.971Z,100989.00
2019-03-12T06:18:34.439Z,100993.00
2019-03-12T06:21:05.951Z,100985.00
2019-03-12T06:23:37.432Z,100992.00
2019-03-12T06:26:09.228Z,100983.00
2019-03-12T06:28:40.664Z,100983.00
2019-03-12T06:31:37.185Z,100985.00
2019-03-12T06:34:13.023Z,100983.00
2019-03-12T06:37:06.354Z,100985.00
2019-03-12T06:40:00.988Z,100974.00
2019-03-12T06:42:57.352Z,100982.00
2019-03-12T06:45:50.713Z,100966.00
2019-03-12T06:48:28.093Z,100977.00
2019-03-12T06:51:17.058Z,100980.00
2019-03-12T06:54:01.299Z,100972.00
2019-03-12T06:56:55.268Z,100974.00
2019-03-12T06:59:31.644Z,100964.00
2019-03-12T07:02:27.559Z,100959.00
2019-03-12T07:05:11.007Z,100960.00
2019-03-12T07:07:53.735Z,100952.00
2019-03-12T07:10:41.013Z,100959.00
2019-03-12T07:13:21.221Z,100944.00
2019-03-12T07:16:11.591Z,100930.00
2019-03-12T07:19:00.773Z,100928.00
2019-03-12T07:22:06.539Z,100931.00
2019-03-12T07:24:56.920Z,100933.00
2019-03-12T07:27:50.424Z,100928.00
2019-03-12T07:30:40.788Z,100944.00
2019-03-12T07:33:21.400Z,100937.00
2019-03-12T07:36:11.869Z,100928.00
2019-03-12T07:39:00.459Z,100926.00
2019-03-12T07:41:53.623Z,100931.00
2019-03-12T07:44:46.845Z,100919.00
2019-03-12T07:47:37.250Z,100918.00
2019-03-12T07:50:40.563Z,100904.00
2019-03-12T07:53:39.293Z,100900.00
2019-03-12T07:56:36.206Z,100886.00
2019-03-12T07:59:26.648Z,100877.00
2019-03-12T08:02:18.972Z,100874.00
2019-03-12T08:05:03.896Z,100864.00
2019-03-12T08:08:03.389Z,100857.00
2019-03-12T08:10:45.582Z,100853.00
2019-03-12T08:13:39.010Z,100844.00
2019-03-12T08:16:21.740Z,100835.00
2019-03-12T08:19:04.767Z,100831.00
2019-03-12T08:21:46.094Z,100830.00
2019-03-12T08:24:36.519Z,100823.00
2019-03-12T08:27:15.477Z,100814.00
2019-03-12T08:29:56.232Z,100814.00
2019-03-12T08:32:52.378Z,100811.00
2019-03-12T08:35:44.095Z,100814.00
2019-03-12T08:38:46.660Z,100797.00
2019-03-12T08:41:52.210Z,100792.00
2019-03-12T08:44:42.672Z,100788.00
2019-03-12T08:47:31.365Z,100778.00
2019-03-12T08:50:30.846Z,100779.00
2019-03-12T08:53:27.339Z,100776.00
2019-03-12T08:56:20.849Z,100765.00
2019-03-12T08:59:06.109Z,100759.00
2019-03-12T09:01:55.309Z,100752.00
2019-03-12T09:04:42.829Z,100743.00
2019-03-12T09:07:30.613Z,100743.00
2019-03-12T09:10:19.967Z,100737.00
2019-03-12T09:13:25.691Z,100733.00
2019-03-12T09:16:15.750Z,100726.00
2019-03-12T09:19:01.188Z,100715.00
2019-03-12T09:21:47.434Z,100706.00
2019-03-12T09:24:40.903Z,100698.00
2019-03-12T09:27:46.189Z,100699.00
2019-03-12T09:30:31.914Z,100687.00
2019-03-12T09:33:13.135Z,100673.00
2019-03-12T09:36:02.421Z,100668.00
2019-03-12T09:38:47.580Z,100665.00
2019-03-12T09:41:36.607Z,100662.00
2019-03-12T09:44:18.656Z,100655.00
2019-03-12T09:46:56.292Z,100661.00
2019-03-12T09:50:02.164Z,100642.00
2019-03-12T09:52:48.827Z,100642.00
2019-03-12T09:55:54.499Z,100629.00
2019-03-12T09:58:43.705Z,100612.00
2019-03-12T10:01:40.273Z,100613.00
2019-03-12T10:04:33.523Z,100618.00
2019-03-12T10:07:29.313Z,100622.00
2019-03-12T10:10:16.104Z,100610.00
2019-03-12T10:13:18.932Z,100606.00
2019-03-12T10:16:08.257Z,100594.00
2019-03-12T10:19:20.965Z,100577.00
2019-03-12T10:22:14.382Z,100579.00
2019-03-12T10:25:04.863Z,100586.00
2019-03-12T10:28:08.986Z,100575.00
2019-03-12T10:31:00.638Z,100570.00
2019-03-12T10:33:51.095Z,100570.00
2019-03-12T10:36:33.413Z,100561.00
2019-03-12T10:40:03.177Z,100556.00
2019-03-12T10:42:56.315Z,100547.00
2019-03-12T10:45:53.128Z,100540.00
2019-03-12T10:48:32.796Z,100535.00
2019-03-12T10:51:05.891Z,100547.00
2019-03-12T10:53:37.522Z,100528.00
2019-03-12T10:56:09.213Z,100529.00
2019-03-12T10:58:40.787Z,100531.00
2019-03-12T11:01:12.490Z,100502.00
2019-03-12T11:03:44.171Z,100500.00
2019-03-12T11:06:15.962Z,100492.00
2019-03-12T11:08:47.458Z,100488.00
2019-03-12T11:11:19.060Z,100492.00
2019-03-12T11:13:50.537Z,100497.00
2019-03-12T11:16:22.012Z,100483.00
2019-03-12T11:18:53.762Z,100482.00
2019-03-12T11:21:25.708Z,100477.00
2019-03-12T11:23:58.576Z,100463.00
2019-03-12T11:26:30.027Z,100468.00
2019-03-12T11:29:03.758Z,100453.00
2019-03-12T11:31:35.216Z,100442.00
2019-03-12T11:34:12.512Z,100448.00
2019-03-12T11:36:44.320Z,100434.00
2019-03-12T11:39:16.271Z,100432.00
2019-03-12T11:41:48.096Z,100428.00
2019-03-12T11:44:23.446Z,100425.00
2019-03-12T11:46:55.025Z,100427.00
2019-03-12T11:49:26.561Z,100416.00
2019-03-12T11:51:58.086Z,100398.00
2019-03-12T11:54:40.336Z,100371.00
2019-03-12T11:57:11.989Z,100357.00
2019-03-12T11:59:43.601Z,100354.00
2019-03-12T12:02:15.431Z,100222.00
2019-03-12T12:04:47.616Z,100349.00
2019-03-12T12:07:19.648Z,100344.00
2019-03-12T12:09:51.564Z,100343.00
2019-03-12T12:12:23.380Z,100323.00
2019-03-12T12:14:55.236Z,100306.00
2019-03-12T12:17:26.872Z,100305.00
2019-03-12T12:19:58.461Z,100299.00
2019-03-12T12:22:31.605Z,100294.00
2019-03-12T12:25:02.998Z,100292.00
2019-03-12T12:27:34.619Z,100267.00
2019-03-12T12:30:07.396Z,100253.00
2019-03-12T12:32:39.078Z,100238.00
2019-03-12T12:35:10.774Z,100241.00
2019-03-12T12:37:42.350Z,100233.00
2019-03-12T12:40:15.765Z,100223.00
2019-03-12T12:42:47.372Z,100212.00
2019-03-12T12:45:20.306Z,100209.00
2019-03-12T12:47:54.554Z,100200.00
2019-03-12T12:50:29.110Z,100181.00
2019-03-12T12:53:00.734Z,100171.00
2019-03-12T12:55:32.299Z,100167.00
2019-03-12T12:58:03.915Z,100159.00
2019-03-12T13:00:38.047Z,100168.00
2019-03-12T13:03:08.806Z,100152.00
2019-03-12T13:05:40.408Z,100161.00
2019-03-12T13:08:11.994Z,100150.00
2019-03-12T13:10:43.614Z,100110.00
2019-03-12T13:13:15.302Z,100130.00
2019-03-12T13:15:46.871Z,100115.00
2019-03-12T13:18:18.439Z,100103.00
2019-03-12T13:20:49.987Z,100095.00
2019-03-12T13:23:21.551Z,100096.00
2019-03-12T13:25:52.978Z,100067.00
2019-03-12T13:28:24.535Z,100065.00
2019-03-12T13:30:56.093Z,100064.00
2019-03-12T13:33:27.798Z,100056.00
2019-03-12T13:36:00.486Z,100049.00
2019-03-12T13:38:44.689Z,100047.00
2019-03-12T13:41:05.226Z,100025.00
2019-03-12T13:43:37.136Z,100033.00
2019-03-12T13:46:08.914Z,100027.00
2019-03-12T13:48:40.432Z,100032.00
2019-03-12T13:51:11.949Z,100017.00
2019-03-12T13:53:43.428Z,99998.00
2019-03-12T13:56:14.969Z,99992.00
2019-03-12T13:58:46.503Z,99985.00
2019-03-12T14:01:17.954Z,99991.00
2019-03-12T14:03:49.422Z,99990.00
2019-03-12T14:06:21.108Z,99969.00
2019-03-12T14:08:54.990Z,99968.00
2019-03-12T14:11:29.957Z,99959.00
2019-03-12T14:14:01.713Z,99958.00
2019-03-12T14:16:33.364Z,99967.00
2019-03-12T14:19:06.172Z,99954.00
2019-03-12T14:21:43.799Z,99947.00
2019-03-12T14:24:15.363Z,99933.00
2019-03-12T14:26:46.845Z,99930.00
2019-03-12T14:29:19.538Z,99914.00
2019-03-12T14:31:53.997Z,99915.00
2019-03-12T14:34:41.817Z,99888.00
2019-03-12T14:37:14.737Z,99890.00
2019-03-12T14:39:46.136Z,99887.00
2019-03-12T14:42:17.522Z,99874.00
2019-03-12T14:44:48.960Z,99875.00
2019-03-12T14:47:20.403Z,99871.00
2019-03-12T14:49:53.383Z,99849.00
2019-03-12T14:52:36.480Z,99846.00
2019-03-12T14:55:09.665Z,99852.00
2019-03-12T14:57:45.014Z,99838.00
2019-03-12T15:00:25.170Z,99831.00
2019-03-12T15:02:57.100Z,99828.00
2019-03-12T15:05:50.891Z,99827.00
2019-03-12T15:08:24.560Z,99806.00
2019-03-12T15:11:31.726Z,99795.00
2019-03-12T15:14:10.262Z,99778.00
2019-03-12T15:16:45.228Z,99782.00
2019-03-12T15:19:16.922Z,99765.00
2019-03-12T15:21:51.739Z,99757.00
2019-03-12T15:24:27.618Z,99750.00
2019-03-12T15:26:59.100Z,99743.00
2019-03-12T15:29:30.615Z,99741.00
2019-03-12T15:32:04.462Z,99736.00
2019-03-12T15:34:36.186Z,99738.00
2019-03-12T15:37:07.753Z,99727.00
2019-03-12T15:39:42.370Z,99722.00
2019-03-12T15:42:13.866Z,99699.00
2019-03-12T15:44:45.482Z,99705.00
2019-03-12T15:47:16.892Z,99686.00
2019-03-12T15:49:48.294Z,99683.00
2019-03-12T15:52:20.970Z,99677.00
2019-03-12T15:54:52.340Z,99678.00
2019-03-12T15:57:23.793Z,99663.00
2019-03-12T15:59:58.112Z,99656.00
2019-03-12T16:02:29.672Z,99651.00
2019-03-12T16:05:01.352Z,99646.00
2019-03-12T16:07:42.874Z,99632.00
2019-03-12T16:10:14.310Z,99631.00
2019-03-12T16:12:45.710Z,99615.00
2019-03-12T16:15:17.191Z,99617.00
2019-03-12T16:17:48.706Z,99610.00
2019-03-12T16:20:20.503Z,99584.00
2019-03-12T16:22:52.076Z,99578.00
2019-03-12T16:25:23.504Z,99572.00
2019-03-12T16:27:54.984Z,99551.00
2019-03-12T16:30:26.774Z,99546.00
2019-03-12T16:32:58.322Z,99535.00
2019-03-12T16:35:29.748Z,99525.00
2019-03-12T16:38:01.277Z,99521.00
2019-03-12T16:40:33.665Z,99508.00
2019-03-12T16:43:06.959Z,99500.00
2019-03-12T16:45:38.338Z,99488.00
2019-03-12T16:48:29.452Z,99473.00
2019-03-12T16:51:05.801Z,99465.00
2019-03-12T16:54:08.253Z,99466.00
2019-03-12T16:56:45.560Z,99469.00
2019-03-12T16:59:16.780Z,99434.00
2019-03-12T17:01:49.782Z,99453.00
2019-03-12T17:04:21.232Z,99446.00
2019-03-12T17:06:52.824Z,99443.00
2019-03-12T17:09:24.637Z,99433.00
2019-03-12T17:11:56.083Z,99426.00
2019-03-12T17:14:38.301Z,99423.00
2019-03-12T17:17:00.872Z,99416.00
2019-03-12T17:19:33.411Z,99410.00
2019-03-12T17:22:04.783Z,99414.00
2019-03-12T17:24:36.307Z,99403.00
2019-03-12T17:27:07.701Z,99393.00
2019-03-12T17:29:39.197Z,99389.00
2019-03-12T17:32:10.645Z,99386.00
2019-03-12T17:34:42.047Z,99385.00
2019-03-12T17:37:13.410Z,99378.00
2019-03-12T17:39:44.886Z,99369.00
2019-03-12T17:42:17.223Z,99369.00
2019-03-12T17:44:48.625Z,99368.00
2019-03-12T17:47:23.477Z,99364.00
2019-03-12T17:49:56.500Z,99354.00
2019-03-12T17:52:28.228Z,99347.00
2019-03-12T17:54:59.651Z,99338.00
2019-03-12T17:57:31.021Z,99336.00
2019-03-12T18:00:07.935Z,99327.00
2019-03-12T18:02:43.095Z,99321.00
2019-03-12T18:05:14.701Z,99318.00
2019-03-12T18:07:46.313Z,99309.00
2019-03-12T18:10:30.717Z,99295.00
2019-03-12T18:13:02.135Z,99291.00
2019-03-12T18:15:33.603Z,99289.00
2019-03-12T18:18:05.065Z,99278.00
2019-03-12T18:20:36.464Z,99269.00
2019-03-12T18:23:22.399Z,99264.00
2019-03-12T18:25:54.919Z,99253.00
2019-03-12T18:28:26.334Z,99246.00
2019-03-12T18:30:57.830Z,99234.00
2019-03-12T18:33:29.221Z,99233.00
2019-03-12T18:36:00.651Z,99228.00
2019-03-12T18:38:32.195Z,99221.00
2019-03-12T18:41:03.585Z,99218.00
2019-03-12T18:43:35.078Z,99212.00
2019-03-12T18:46:06.585Z,99196.00
2019-03-12T18:48:38.033Z,99188.00
2019-03-12T18:51:09.621Z,99192.00
2019-03-12T18:53:41.638Z,99178.00
2019-03-12T18:56:13.727Z,99173.00
2019-03-12T18:58:45.950Z,99182.00
2019-03-12T19:01:18.265Z,99160.00
2019-03-12T19:03:54.976Z,99150.00
2019-03-12T19:06:26.634Z,99144.00
2019-03-12T19:08:58.118Z,99141.00
2019-03-12T19:11:29.983Z,99126.00
2019-03-12T19:14:02.772Z,99119.00
2019-03-12T19:16:34.314Z,99104.00
2019-03-12T19:19:06.533Z,99090.00
2019-03-12T19:21:38.057Z,99100.00
2019-03-12T19:24:09.595Z,99087.00
2019-03-12T19:26:41.111Z,99089.00
2019-03-12T19:29:13.924Z,99080.00
2019-03-12T19:32:04.341Z,99078.00
2019-03-12T19:34:37.315Z,99071.00
2019-03-12T19:37:08.801Z,99071.00
2019-03-12T19:39:40.289Z,99064.00
2019-03-12T19:42:11.809Z,99052.00
2019-03-12T19:44:43.300Z,99063.00
2019-03-12T19:47:15.194Z,99058.00
2019-03-12T19:49:46.769Z,99054.00
2019-03-12T19:52:18.271Z,99038.00
2019-03-12T19:54:49.816Z,99048.00
2019-03-12T19:57:24.211Z,99023.00
2019-03-12T19:59:55.948Z,99015.00
2019-03-12T20:02:28.023Z,99018.00
2019-03-12T20:04:59.608Z,99002.00
2019-03-12T20:07:31.355Z,98984.00
2019-03-12T20:10:33.985Z,98989.00
2019-03-12T20:14:10.022Z,98963.00
2019-03-12T20:17:40.422Z,98946.00
2019-03-12T20:20:54.966Z,98945.00
2019-03-12T20:24:19.933Z,98921.00
2019-03-12T20:28:14.783Z,98918.00
2019-03-12T20:31:52.313Z,98909.00
2019-03-12T20:35:31.976Z,98907.00
2019-03-12T20:39:01.671Z,98900.00
2019-03-12T20:42:53.523Z,98910.00
2019-03-12T20:46:18.415Z,98897.00
2019-03-12T20:49:47.560Z,98918.00
2019-03-12T20:53:13.446Z,98914.00
2019-03-12T20:56:44.618Z,98919.00
2019-03-12T21:00:15.593Z,98916.00
2019-03-12T21:04:21.897Z,98909.00
2019-03-12T21:07:57.588Z,98890.00
2019-03-12T21:11:45.595Z,98911.00
2019-03-12T21:15:21.481Z,98896.00
2019-03-12T21:19:02.443Z,98876.00
2019-03-12T21:22:10.458Z,98870.00
2019-03-12T21:25:45.866Z,98864.00
2019-03-12T21:29:44.508Z,98843.00
2019-03-12T21:32:17.860Z,98836.00
2019-03-12T21:34:49.983Z,98827.00
2019-03-12T21:37:21.585Z,98805.00
2019-03-12T21:39:55.875Z,98812.00
2019-03-12T21:42:26.567Z,98788.00
2019-03-12T21:44:58.129Z,98795.00
2019-03-12T21:47:29.617Z,98784.00
2019-03-12T21:50:02.511Z,98779.00
2019-03-12T21:52:34.079Z,98770.00
2019-03-12T21:55:06.385Z,98764.00
2019-03-12T21:57:37.946Z,98764.00
2019-03-12T22:00:14.104Z,98761.00
2019-03-12T22:02:47.480Z,98754.00
2019-03-12T22:05:19.030Z,98755.00
2019-03-12T22:07:50.580Z,98746.00
2019-03-12T22:10:21.993Z,98742.00
2019-03-12T22:12:54.936Z,98749.00
2019-03-12T22:15:29.952Z,98734.00
2019-03-12T22:18:01.790Z,98731.00
2019-03-12T22:20:33.431Z,98730.00
2019-03-12T22:23:09.701Z,98725.00
2019-03-12T22:25:41.258Z,98716.00
2019-03-12T22:28:13.941Z,98710.00
2019-03-12T22:30:45.750Z,98708.00
2019-03-12T22:33:18.980Z,98698.00
2019-03-12T22:35:52.225Z,98713.00
2019-03-12T22:38:23.920Z,98700.00
2019-03-12T22:40:55.518Z,98690.00
2019-03-12T22:43:26.996Z,98678.00
2019-03-12T22:45:59.002Z,98693.00
2019-03-12T22:48:30.584Z,98681.00
2019-03-12T22:51:02.125Z,98684.00
2019-03-12T22:53:34.840Z,98694.00
2019-03-12T22:56:06.320Z,98689.00
2019-03-12T22:58:37.811Z,98686.00
2019-03-12T23:01:27.401Z,98677.00
2019-03-12T23:04:16.663Z,98667.00
2019-03-12T23:07:05.944Z,98665.00
2019-03-12T23:09:45.684Z,98673.00
2019-03-12T23:12:21.902Z,98662.00
2019-03-12T23:14:54.976Z,98654.00
2019-03-12T23:17:26.642Z,98653.00
2019-03-12T23:19:58.908Z,98643.00
2019-03-12T23:22:30.532Z,98648.00
2019-03-12T23:25:02.122Z,98648.00
2019-03-12T23:27:35.172Z,98642.00
2019-03-12T23:30:11.539Z,98636.00
2019-03-12T23:32:43.107Z,98636.00
2019-03-12T23:35:14.704Z,98639.00
2019-03-12T23:37:46.216Z,98622.00
2019-03-12T23:40:19.054Z,98621.00
2019-03-12T23:42:50.512Z,98635.00
2019-03-12T23:45:21.992Z,98623.00
2019-03-12T23:47:53.432Z,98625.00
2019-03-12T23:50:26.905Z,98618.00
2019-03-12T23:52:59.965Z,98619.00
2019-03-12T23:55:31.822Z,98621.00
2019-03-12T23:58:03.332Z,98627.00
